createdAt,value
2022-09-12T00:01:17.366Z,58.92
2022-09-12T00:03:46.843Z,58.96
2022-09-12T00:06:22.630Z,58.98
2022-09-12T00:08:51.537Z,58.88
2022-09-12T00:11:19.780Z,58.32
2022-09-12T00:13:47.794Z,58.36
2022-09-12T00:16:17.787Z,58.72
2022-09-12T00:18:47.782Z,58.72
2022-09-12T00:21:17.540Z,58.70
2022-09-12T00:23:47.018Z,58.92
2022-09-12T00:26:17.198Z,58.61
2022-09-12T00:28:45.988Z,58.68
2022-09-12T00:31:16.171Z,58.52
2022-09-12T00:33:44.869Z,58.57
2022-09-12T00:36:16.209Z,58.59
2022-09-12T00:38:44.975Z,58.74
2022-09-12T00:41:17.872Z,58.53
2022-09-12T00:43:47.831Z,58.30
2022-09-12T00:46:26.724Z,58.06
2022-09-12T00:48:59.389Z,58.50
2022-09-12T00:51:31.545Z,58.28
2022-09-12T00:54:01.526Z,58.35
2022-09-12T00:56:30.116Z,58.38
2022-09-12T00:59:02.627Z,58.19
2022-09-12T01:01:32.762Z,58.15
2022-09-12T01:04:01.395Z,58.14
2022-09-12T01:06:36.722Z,58.24
2022-09-12T01:09:05.970Z,58.15
2022-09-12T01:11:37.423Z,58.11
2022-09-12T01:14:06.915Z,58.06
2022-09-12T01:16:37.020Z,57.73
2022-09-12T01:19:24.387Z,57.79
2022-09-12T01:22:07.905Z,57.75
2022-09-12T01:24:55.720Z,57.65
2022-09-12T01:27:43.909Z,57.63
2022-09-12T01:30:43.221Z,57.57
2022-09-12T01:33:30.592Z,57.36
2022-09-12T01:36:12.961Z,57.41
2022-09-12T01:38:48.366Z,57.47
2022-09-12T01:41:25.627Z,57.53
2022-09-12T01:44:03.288Z,57.47
2022-09-12T01:46:37.038Z,57.60
2022-09-12T01:49:13.743Z,57.64
2022-09-12T01:51:45.548Z,57.61
2022-09-12T01:54:20.825Z,57.49
2022-09-12T01:56:52.983Z,57.51
2022-09-12T01:59:26.759Z,57.22
2022-09-12T02:02:02.908Z,57.03
2022-09-12T02:04:36.677Z,57.11
2022-09-12T02:07:10.465Z,57.12
2022-09-12T02:09:43.043Z,57.29
2022-09-12T02:12:15.047Z,57.31
2022-09-12T02:14:49.895Z,57.46
2022-09-12T02:17:22.157Z,57.50
2022-09-12T02:19:54.216Z,57.69
2022-09-12T02:22:26.508Z,57.52
2022-09-12T02:24:58.934Z,57.56
2022-09-12T02:27:32.645Z,57.52
2022-09-12T02:30:01.278Z,57.53
2022-09-12T02:32:35.777Z,57.71
2022-09-12T02:35:09.825Z,57.94
2022-09-12T02:38:00.795Z,58.04
2022-09-12T02:40:29.546Z,57.79
2022-09-12T02:42:58.234Z,57.77
2022-09-12T02:45:26.447Z,57.74
2022-09-12T02:47:59.970Z,57.81
2022-09-12T02:50:28.778Z,57.71
2022-09-12T02:52:59.911Z,57.91
2022-09-12T02:55:30.497Z,58.29
2022-09-12T02:57:58.628Z,58.28
2022-09-12T03:00:27.674Z,58.14
2022-09-12T03:03:12.579Z,58.20
2022-09-12T03:05:53.731Z,58.29
2022-09-12T03:08:42.145Z,58.45
2022-09-12T03:11:24.457Z,58.87
2022-09-12T03:14:05.269Z,59.11
2022-09-12T03:16:38.870Z,59.21
2022-09-12T03:19:19.464Z,59.30
2022-09-12T03:21:58.062Z,59.46
2022-09-12T03:24:32.987Z,59.62
2022-09-12T03:27:08.647Z,59.68
2022-09-12T03:29:39.628Z,59.91
2022-09-12T03:32:08.423Z,59.96
2022-09-12T03:34:37.866Z,60.02
2022-09-12T03:37:06.627Z,60.19
2022-09-12T03:39:34.773Z,59.94
2022-09-12T03:42:03.206Z,59.83
2022-09-12T03:44:32.727Z,59.83
2022-09-12T03:47:00.789Z,59.73
2022-09-12T03:49:28.837Z,59.63
2022-09-12T03:51:58.461Z,59.70
2022-09-12T03:54:26.693Z,59.80
2022-09-12T03:56:54.734Z,59.72
2022-09-12T03:59:22.878Z,59.92
2022-09-12T04:01:50.880Z,59.90
2022-09-12T04:04:18.909Z,59.85
2022-09-12T04:06:46.976Z,59.95
2022-09-12T04:09:16.457Z,59.91
2022-09-12T04:11:44.385Z,59.74
2022-09-12T04:14:12.351Z,59.79
2022-09-12T04:16:40.323Z,60.06
2022-09-12T04:19:08.288Z,60.77
2022-09-12T04:21:36.175Z,61.09
2022-09-12T04:24:04.367Z,61.26
2022-09-12T04:26:36.364Z,61.38
2022-09-12T04:29:04.646Z,61.24
2022-09-12T04:31:32.547Z,61.45
2022-09-12T04:34:02.386Z,61.18
2022-09-12T04:36:31.143Z,61.40
2022-09-12T04:39:00.305Z,61.57
2022-09-12T04:41:30.765Z,61.78
2022-09-12T04:44:02.459Z,61.78
2022-09-12T04:46:31.419Z,62.08
2022-09-12T04:48:59.587Z,62.33
2022-09-12T04:51:30.155Z,62.34
2022-09-12T04:54:00.058Z,62.26
2022-09-12T04:56:29.150Z,62.38
2022-09-12T04:59:01.493Z,62.36
2022-09-12T05:01:31.122Z,62.10
2022-09-12T05:04:00.384Z,61.96
2022-09-12T05:06:30.144Z,61.48
2022-09-12T05:08:59.704Z,61.34
2022-09-12T05:11:46.694Z,61.43
2022-09-12T05:14:17.630Z,61.41
2022-09-12T05:16:49.701Z,61.45
2022-09-12T05:19:18.323Z,61.69
2022-09-12T05:21:46.505Z,61.27
2022-09-12T05:24:14.594Z,61.24
2022-09-12T05:26:42.985Z,61.10
2022-09-12T05:29:13.149Z,60.92
2022-09-12T05:31:41.493Z,60.98
2022-09-12T05:34:11.307Z,60.93
2022-09-12T05:36:41.368Z,60.25
2022-09-12T05:39:09.689Z,60.21
2022-09-12T05:41:37.864Z,59.95
2022-09-12T05:44:07.459Z,59.71
2022-09-12T05:46:39.275Z,59.58
2022-09-12T05:49:10.071Z,59.54
2022-09-12T05:51:42.212Z,59.13
2022-09-12T05:54:13.403Z,58.76
2022-09-12T05:56:43.960Z,58.37
2022-09-12T05:59:14.840Z,58.05
2022-09-12T06:01:43.265Z,57.83
2022-09-12T06:04:14.199Z,57.44
2022-09-12T06:06:46.043Z,57.07
2022-09-12T06:09:15.821Z,56.73
2022-09-12T06:11:44.908Z,56.40
2022-09-12T06:14:15.177Z,56.11
2022-09-12T06:16:43.463Z,56.09
2022-09-12T06:19:16.315Z,55.76
2022-09-12T06:21:46.213Z,55.45
2022-09-12T06:24:14.591Z,55.22
2022-09-12T06:26:43.802Z,55.02
2022-09-12T06:29:13.473Z,54.84
2022-09-12T06:31:43.734Z,54.59
2022-09-12T06:34:14.202Z,54.40
2022-09-12T06:36:46.040Z,54.32
2022-09-12T06:39:16.296Z,54.26
2022-09-12T06:41:45.346Z,54.35
2022-09-12T06:44:16.192Z,54.40
2022-09-12T06:46:46.312Z,54.38
2022-09-12T06:49:14.522Z,54.34
2022-09-12T06:51:43.101Z,54.46
2022-09-12T06:54:14.020Z,54.69
2022-09-12T06:56:42.375Z,54.94
2022-09-12T06:59:10.588Z,55.19
2022-09-12T07:01:40.274Z,55.63
2022-09-12T07:04:08.522Z,56.09
2022-09-12T07:06:39.986Z,56.66
2022-09-12T07:09:10.823Z,57.11
2022-09-12T07:11:43.034Z,57.38
2022-09-12T07:14:14.328Z,57.68
2022-09-12T07:16:43.194Z,57.75
2022-09-12T07:19:12.411Z,58.05
2022-09-12T07:22:08.109Z,58.49
2022-09-12T07:24:47.454Z,58.81
2022-09-12T07:27:17.372Z,59.21
2022-09-12T07:29:48.684Z,59.13
2022-09-12T07:33:25.744Z,59.31
2022-09-12T08:01:51.289Z,62.13
2022-09-12T08:04:37.555Z,62.60
2022-09-12T08:07:09.706Z,62.87
2022-09-12T08:09:41.819Z,63.70
2022-09-12T08:12:37.844Z,64.86
2022-09-12T08:15:11.513Z,66.13
2022-09-12T08:17:53.289Z,67.57
2022-09-12T08:20:25.363Z,69.13
2022-09-12T08:22:56.837Z,70.95
2022-09-12T08:25:26.115Z,74.98
2022-09-12T08:28:51.151Z,81.06
2022-09-12T08:31:58.831Z,88.96
2022-09-12T08:34:34.532Z,96.89
2022-09-12T08:52:02.219Z,100.00
2022-09-12T08:55:01.246Z,100.00
2022-09-12T09:02:00.881Z,100.00
2022-09-12T09:05:08.361Z,100.00
2022-09-12T09:08:05.289Z,100.00
2022-09-12T09:10:41.949Z,100.00
2022-09-12T09:20:59.222Z,100.00
2022-09-12T09:23:36.551Z,100.00
2022-09-12T09:26:11.653Z,100.00
2022-09-12T09:28:51.623Z,100.00
2022-09-12T09:31:25.050Z,100.00
2022-09-12T09:34:02.402Z,100.00
2022-09-12T09:36:55.908Z,100.00
2022-09-12T09:40:14.205Z,100.00
2022-09-12T09:42:47.940Z,100.00
2022-09-12T09:45:18.382Z,100.00
2022-09-12T09:47:48.072Z,100.00
2022-09-12T09:50:44.568Z,100.00
2022-09-12T09:56:35.938Z,100.00
2022-09-12T09:59:11.910Z,100.00
2022-09-12T10:01:49.817Z,100.00
2022-09-12T10:04:36.010Z,100.00
2022-09-12T10:07:07.766Z,100.00
2022-09-12T10:09:44.896Z,100.00
2022-09-12T10:16:58.361Z,100.00
2022-09-12T10:24:29.344Z,100.00
2022-09-12T10:25:30.861Z,100.00
2022-09-12T10:27:10.149Z,100.00
2022-09-12T10:29:46.526Z,100.00
2022-09-12T10:32:20.974Z,100.00
2022-09-12T10:34:52.716Z,100.00
2022-09-12T10:37:27.696Z,100.00
2022-09-12T10:40:00.925Z,100.00
2022-09-12T10:42:54.431Z,100.00
2022-09-12T10:45:26.895Z,100.00
2022-09-12T10:47:58.250Z,100.00
2022-09-12T10:50:41.841Z,100.00
2022-09-12T10:53:20.505Z,100.00
2022-09-12T10:56:12.134Z,100.00
2022-09-12T10:59:01.703Z,100.00
2022-09-12T11:01:40.394Z,100.00
2022-09-12T11:04:25.689Z,100.00
2022-09-12T11:07:07.549Z,100.00
2022-09-12T11:09:42.498Z,100.00
2022-09-12T11:12:20.067Z,100.00
2022-09-12T11:15:03.761Z,100.00
2022-09-12T11:17:47.306Z,100.00
2022-09-12T11:20:51.659Z,100.00
2022-09-12T11:23:47.188Z,100.00
2022-09-12T11:26:26.780Z,100.00
2022-09-12T11:29:03.271Z,100.00
2022-09-12T11:32:07.641Z,100.00
2022-09-12T11:34:50.490Z,100.00
2022-09-12T11:37:33.533Z,100.00
2022-09-12T11:40:16.479Z,100.00
2022-09-12T11:42:47.414Z,100.00
2022-09-12T11:45:35.943Z,100.00
2022-09-12T11:48:13.017Z,100.00
2022-09-12T11:50:42.661Z,100.00
2022-09-12T11:53:20.259Z,100.00
2022-09-12T11:55:54.997Z,100.00
2022-09-12T11:58:29.316Z,100.00
2022-09-12T12:01:00.283Z,100.00
2022-09-12T12:03:34.529Z,100.00
2022-09-12T12:06:08.335Z,100.00
2022-09-12T12:08:40.835Z,100.00
2022-09-12T12:11:10.294Z,100.00
2022-09-12T12:13:42.359Z,100.00
2022-09-12T12:16:17.981Z,100.00
2022-09-12T12:18:46.853Z,100.00
2022-09-12T12:21:33.577Z,100.00
2022-09-12T12:24:15.561Z,100.00
2022-09-12T12:26:57.865Z,100.00
2022-09-12T12:29:44.302Z,100.00
2022-09-12T12:32:26.873Z,100.00
2022-09-12T12:35:38.972Z,100.00
2022-09-12T12:38:29.364Z,100.00
2022-09-12T12:41:44.510Z,100.00
2022-09-12T12:44:51.286Z,100.00
2022-09-12T12:47:24.227Z,100.00
2022-09-12T12:49:54.523Z,100.00
2022-09-12T12:52:23.086Z,100.00
2022-09-12T12:54:56.792Z,100.00
2022-09-12T12:57:31.236Z,100.00
2022-09-12T13:00:05.214Z,100.00
2022-09-12T13:02:38.630Z,100.00
2022-09-12T13:05:18.813Z,100.00
2022-09-12T13:07:48.205Z,100.00
2022-09-12T13:10:25.479Z,100.00
2022-09-12T13:12:54.410Z,100.00
2022-09-12T13:15:51.382Z,100.00
2022-09-12T13:18:27.886Z,100.00
2022-09-12T13:21:05.458Z,100.00
2022-09-12T13:23:38.489Z,100.00
2022-09-12T13:26:13.512Z,100.00
2022-09-12T13:28:43.582Z,100.00
2022-09-12T13:31:25.378Z,100.00
2022-09-12T13:33:59.878Z,100.00
2022-09-12T13:36:48.747Z,100.00
2022-09-12T13:39:29.563Z,100.00
2022-09-12T13:42:32.330Z,100.00
2022-09-12T13:45:06.610Z,100.00
2022-09-12T13:47:40.740Z,100.00
2022-09-12T13:50:14.366Z,100.00
2022-09-12T13:52:52.494Z,100.00
2022-09-12T13:55:33.490Z,100.00
2022-09-12T13:58:07.625Z,100.00
2022-09-12T14:00:38.930Z,100.00
2022-09-12T14:03:45.566Z,100.00
2022-09-12T14:06:18.878Z,100.00
2022-09-12T14:08:51.779Z,100.00
2022-09-12T14:11:27.433Z,100.00
2022-09-12T14:13:57.331Z,100.00
2022-09-12T14:16:27.370Z,100.00
2022-09-12T14:18:56.226Z,100.00
2022-09-12T14:21:38.741Z,100.00
2022-09-12T14:24:08.692Z,100.00
2022-09-12T14:26:39.144Z,100.00
2022-09-12T14:29:10.224Z,100.00
2022-09-12T14:31:41.719Z,100.00
2022-09-12T14:34:13.110Z,100.00
2022-09-12T14:36:46.917Z,100.00
2022-09-12T14:39:23.544Z,100.00
2022-09-12T14:42:03.454Z,100.00
2022-09-12T14:44:34.639Z,100.00
2022-09-12T14:47:15.154Z,100.00
2022-09-12T14:49:43.918Z,100.00
2022-09-12T14:52:27.807Z,100.00
2022-09-12T14:55:03.583Z,100.00
2022-09-12T14:57:35.092Z,100.00
2022-09-12T16:05:17.806Z,100.00
2022-09-12T16:07:47.431Z,100.00
2022-09-12T16:10:31.287Z,100.00
2022-09-12T16:12:59.713Z,100.00
2022-09-12T16:15:27.832Z,100.00
2022-09-12T16:17:56.013Z,100.00
2022-09-12T16:20:24.414Z,100.00
2022-09-12T16:22:53.860Z,100.00
2022-09-12T16:25:21.884Z,100.00
2022-09-12T16:27:50.046Z,100.00
2022-09-12T16:30:18.310Z,100.00
2022-09-12T16:32:46.593Z,100.00
2022-09-12T16:35:17.180Z,100.00
2022-09-12T16:37:45.171Z,100.00
2022-09-12T16:40:15.806Z,100.00
2022-09-12T16:42:43.992Z,100.00
2022-09-12T16:45:13.043Z,100.00
2022-09-12T16:47:41.138Z,100.00
2022-09-12T16:50:09.879Z,100.00
2022-09-12T16:52:37.871Z,100.00
2022-09-12T16:55:06.909Z,100.00
2022-09-12T16:57:36.617Z,100.00
2022-09-12T17:00:05.868Z,100.00
2022-09-12T17:02:40.937Z,100.00
2022-09-12T17:05:10.020Z,100.00
2022-09-12T17:07:38.239Z,100.00
2022-09-12T17:10:07.320Z,100.00
2022-09-12T17:12:39.444Z,100.00
2022-09-12T17:15:08.860Z,100.00
2022-09-12T17:17:37.056Z,100.00
2022-09-12T17:20:05.915Z,100.00
2022-09-12T17:22:34.850Z,100.00
2022-09-12T17:25:03.025Z,100.00
2022-09-12T17:27:31.119Z,100.00
2022-09-12T17:30:00.870Z,100.00
2022-09-12T17:32:29.094Z,100.00
2022-09-12T17:34:57.264Z,100.00
2022-09-12T17:37:26.036Z,100.00
2022-09-12T17:39:54.350Z,100.00
2022-09-12T17:42:24.402Z,100.00
2022-09-12T17:44:52.971Z,100.00
2022-09-12T17:47:22.744Z,100.00
2022-09-12T17:49:51.086Z,100.00
2022-09-12T17:52:19.747Z,100.00
2022-09-12T17:54:48.096Z,100.00
2022-09-12T17:57:16.394Z,100.00
2022-09-12T17:59:44.733Z,100.00
2022-09-12T18:02:13.419Z,100.00
2022-09-12T18:04:45.930Z,100.00
2022-09-12T18:07:14.510Z,100.00
2022-09-12T18:09:43.844Z,100.00
2022-09-12T18:12:12.748Z,100.00
2022-09-12T18:14:41.819Z,100.00
2022-09-12T18:17:11.581Z,100.00
2022-09-12T18:19:40.096Z,100.00
2022-09-12T18:22:10.278Z,100.00
2022-09-12T18:24:40.066Z,100.00
2022-09-12T18:27:08.823Z,100.00
2022-09-12T18:29:40.525Z,100.00
2022-09-12T18:32:09.339Z,100.00
2022-09-12T18:34:40.721Z,100.00
2022-09-12T18:37:35.119Z,100.00
2022-09-12T18:40:04.273Z,100.00
2022-09-12T18:42:40.112Z,100.00
2022-09-12T18:45:18.398Z,100.00
2022-09-12T18:47:49.829Z,100.00
2022-09-12T18:50:18.827Z,100.00
2022-09-12T18:52:59.763Z,100.00
2022-09-12T18:55:34.774Z,100.00
2022-09-12T18:58:09.595Z,100.00
2022-09-12T19:00:42.877Z,100.00
2022-09-12T19:03:16.749Z,100.00
2022-09-12T19:05:45.208Z,100.00
2022-09-12T19:08:19.828Z,100.00
2022-09-12T19:11:02.286Z,100.00
2022-09-12T19:13:39.894Z,100.00
2022-09-12T19:16:18.189Z,100.00
2022-09-12T19:18:49.931Z,100.00
2022-09-12T19:21:22.523Z,100.00
2022-09-12T19:23:56.717Z,100.00
2022-09-12T19:26:26.851Z,100.00
2022-09-12T19:28:55.490Z,100.00
2022-09-12T19:31:24.706Z,100.00
2022-09-12T19:33:53.742Z,100.00
2022-09-12T19:39:14.274Z,100.00
2022-09-12T19:41:42.732Z,100.00
2022-09-12T19:44:14.974Z,100.00
2022-09-12T19:47:03.980Z,100.00
2022-09-12T19:49:39.699Z,100.00
2022-09-12T19:52:08.109Z,100.00
2022-09-12T19:54:38.597Z,100.00
2022-09-12T19:57:12.439Z,100.00
2022-09-12T19:59:45.106Z,100.00
2022-09-12T20:02:13.322Z,100.00
2022-09-12T20:04:41.341Z,100.00
2022-09-12T20:07:09.388Z,100.00
2022-09-12T20:09:38.796Z,100.00
2022-09-12T20:12:07.214Z,100.00
2022-09-12T20:14:35.388Z,100.00
2022-09-12T20:17:03.492Z,100.00
2022-09-12T20:19:31.476Z,100.00
2022-09-12T20:21:59.725Z,100.00
2022-09-12T20:24:27.780Z,100.00
2022-09-12T20:26:57.776Z,100.00
2022-09-12T20:29:25.870Z,100.00
2022-09-12T20:31:53.777Z,100.00
2022-09-12T20:34:22.679Z,100.00
2022-09-12T20:36:50.748Z,100.00
2022-09-12T20:39:20.837Z,100.00
2022-09-12T20:41:48.909Z,100.00
2022-09-12T20:44:18.398Z,100.00
2022-09-12T20:46:46.755Z,100.00
2022-09-12T20:49:15.011Z,100.00
2022-09-12T20:51:43.040Z,100.00
2022-09-12T20:54:11.294Z,100.00
2022-09-12T20:56:39.348Z,100.00
2022-09-12T20:59:07.579Z,100.00
2022-09-12T21:01:36.913Z,100.00
2022-09-12T21:04:04.937Z,100.00
2022-09-12T21:06:33.261Z,100.00
2022-09-12T21:09:01.434Z,100.00
2022-09-12T21:11:29.737Z,100.00
2022-09-12T21:13:58.293Z,100.00
2022-09-12T21:16:26.331Z,100.00
2022-09-12T21:18:57.554Z,100.00
2022-09-12T21:21:26.352Z,100.00
2022-09-12T21:23:55.370Z,100.00
2022-09-12T21:26:23.283Z,100.00
2022-09-12T21:28:51.259Z,100.00
2022-09-12T21:31:19.170Z,100.00
2022-09-12T21:33:47.096Z,100.00
2022-09-12T21:36:16.531Z,100.00
2022-09-12T21:38:44.641Z,100.00
2022-09-12T21:41:14.441Z,100.00
2022-09-12T21:43:43.173Z,100.00
2022-09-12T21:46:11.801Z,100.00
2022-09-12T21:48:41.867Z,100.00
2022-09-12T21:51:10.163Z,100.00
2022-09-12T21:53:39.593Z,100.00
2022-09-12T21:56:09.371Z,100.00
2022-09-12T21:58:38.316Z,100.00
2022-09-12T22:01:08.718Z,100.00
2022-09-12T22:03:36.779Z,100.00
2022-09-12T22:06:06.433Z,100.00
2022-09-12T22:08:35.632Z,100.00
2022-09-12T22:11:09.268Z,100.00
2022-09-12T22:13:39.171Z,100.00
2022-09-12T22:16:07.859Z,100.00
2022-09-12T22:18:37.423Z,100.00
2022-09-12T22:21:07.250Z,100.00
2022-09-12T22:23:52.647Z,100.00
2022-09-12T22:26:22.215Z,100.00
2022-09-12T22:28:50.970Z,100.00
2022-09-12T22:31:19.360Z,100.00
2022-09-12T22:33:47.280Z,100.00
2022-09-12T22:36:15.697Z,100.00
2022-09-12T22:38:43.609Z,100.00
2022-09-12T22:41:13.074Z,100.00
2022-09-12T22:43:42.517Z,100.00
2022-09-12T22:46:13.374Z,100.00
2022-09-12T22:48:41.742Z,100.00
2022-09-12T22:51:10.208Z,100.00
2022-09-12T22:53:38.511Z,100.00
2022-09-12T22:56:07.520Z,100.00
2022-09-12T22:58:37.305Z,100.00
2022-09-12T23:01:07.287Z,100.00
2022-09-12T23:03:36.442Z,100.00
2022-09-12T23:06:05.537Z,100.00
2022-09-12T23:08:35.763Z,100.00
2022-09-12T23:11:05.169Z,100.00
2022-09-12T23:13:33.334Z,100.00
2022-09-12T23:16:02.154Z,100.00
2022-09-12T23:18:31.974Z,100.00
2022-09-12T23:21:01.175Z,100.00
2022-09-12T23:23:29.760Z,100.00
2022-09-12T23:26:06.040Z,100.00
2022-09-12T23:28:34.862Z,100.00
2022-09-12T23:31:03.356Z,100.00
2022-09-12T23:33:33.646Z,100.00
2022-09-12T23:36:02.306Z,100.00
2022-09-12T23:38:30.689Z,100.00
2022-09-12T23:40:58.860Z,100.00
2022-09-12T23:43:27.491Z,100.00
2022-09-12T23:45:55.567Z,100.00
2022-09-12T23:48:23.721Z,100.00
2022-09-12T23:50:53.397Z,100.00
2022-09-12T23:53:22.177Z,100.00
2022-09-12T23:55:50.690Z,100.00
2022-09-12T23:58:18.580Z,100.00
